Avisos AEMET Campiña SevillanaSin Avisos+ INFO
Sevilla, Andalucía, España
Sprache: de English Français Deutsch Italiano Português Español
 

Nearby METAR Reports

 

LEZL - Sevilla, Spain
Distance from station: ONO 8km
aktuell: 24/02/2024 09:30
klar
klar
 Wind von W
Wind: W 22 km/h
Temperatur: 10°C
Wind Chill: 7°C
Taupunkt: 7°C
Luftfeuchte: 82%
Luftdruck: 1019 hPa
Zusammenfassung: klar
Visibility: greater than 10 km
2024/02/24 08:30 LEZL 240830Z 27012KT CAVOK 10/07 Q1019 NOSIG
LEMO - Morón, Spain
Distance from station: SO 43km
aktuell: 24/02/2024 09:30
klar
klar
 Wind von WSW
Wind: WSW 15 km/h
Temperatur: 9°C
Wind Chill: 7°C
Taupunkt: 7°C
Luftfeuchte: 87%
Luftdruck: 1020 hPa
Zusammenfassung: klar
Visibility: greater than 10 km
2024/02/24 08:30 LEMO 240830Z 25008KT 210V280 CAVOK 09/07 Q1020 NOSIG
LEJR - Jeréz, Spain
Distance from station: S 71km
aktuell: 24/02/2024 09:30
klar
klar
 Wind von W
Wind: W 9 km/h
Temperatur: 12°C
Taupunkt: 7°C
Luftfeuchte: 72%
Luftdruck: 1020 hPa
Zusammenfassung: klar
Visibility: greater than 10 km
2024/02/24 08:30 LEJR 240830Z 27005KT 230V310 CAVOK 12/07 Q1020
 
LERT - Rota, Spain
Distance from station: SSW 89km
aktuell: 24/02/2024 09:30
Few Clouds
Few Clouds
 Wind von WNW
Wind: WNW 20 km/h
Temperatur: 14°C
Taupunkt: 7°C
Luftfeuchte: 63%
Luftdruck: 1021 hPa
Clouds: Few Clouds
Visibility: 10 km
Cloud details: Few Clouds 945 m
2024/02/24 08:30 LERT 240830Z 29011KT 260V330 9999 FEW031 14/07 Q1021 NOSIG
LEMG - Málaga, Spain
Distance from station: OSO 157km
aktuell: 24/02/2024 09:30
teilweise bewölkt
teilweise bewölkt
 Wind von WNW
Wind: WNW 17 km/h
Temperatur: 12°C
Taupunkt: 5°C
Luftfeuchte: 63%
Luftdruck: 1019 hPa
Clouds: teilweise bewölkt
Visibility: 10 km
Cloud details: teilweise bewölkt 2134 m
2024/02/24 08:30 LEMG 240830Z 30009KT 260V320 9999 SCT070 12/05 Q1019 NOSIG
LEBA - Córdoba, Spain
Distance from station: ONO 115km
aktuell: 24/02/2024 09:30
stark bewölkt
stark bewölkt
 Wind von WSW
Wind: WSW 13 km/h
Temperatur: 8°C
Wind Chill: 6°C
Taupunkt: 7°C
Luftfeuchte: 93%
Luftdruck: 1019 hPa
Clouds: stark bewölkt
Visibility: 10 km
Cloud details: stark bewölkt 244 m
stark bewölkt 914 m
2024/02/24 08:30 LEBA 240830Z 25007KT 230V300 9999 BKN008 BKN030 08/07 Q1019
 
LEGR - Granada, Spain
Distance from station: O 198km
aktuell: 24/02/2024 09:30
stark bewölkt
stark bewölkt
 Wind von W
Wind: W 15 km/h
Temperatur: 6°C
Wind Chill: 3°C
Taupunkt: 4°C
Luftfeuchte: 87%
Luftdruck: 1018 hPa
Clouds: stark bewölkt
Visibility: 10 km
Cloud details: Few Clouds 975 m
teilweise bewölkt 1189 m
stark bewölkt 1524 m
2024/02/24 08:30 LEGR 240830Z 28008KT 9999 FEW032 SCT039 BKN050 06/04 Q1018
LEAM - Almería, Spain
Distance from station: O 326km
aktuell: 24/02/2024 09:30
Few Clouds
Few Clouds
 Wind von SSW
Wind: SSW 13 km/h
Temperatur: 14°C
Taupunkt: 6°C
Luftfeuchte: 59%
Luftdruck: 1014 hPa
Clouds: Few Clouds
Visibility: 10 km
Cloud details: Few Clouds 1524 m
2024/02/24 08:30 LEAM 240830Z 21007KT 190V250 9999 FEW050 14/06 Q1014
LEMD - Madrid/Barajas, Spain
Distance from station: NNO 402km
aktuell: 24/02/2024 09:30
teilweise bewölkt
teilweise bewölkt
 Wind von WNW
Wind: WNW 17 km/h
Temperatur: 6°C
Wind Chill: 3°C
Taupunkt: 0°C
Luftfeuchte: 66%
Luftdruck: 1012 hPa
Clouds: teilweise bewölkt
Visibility: 10 km
Cloud details: Few Clouds 1433 m
teilweise bewölkt 2042 m
2024/02/24 08:30 LEMD 240830Z 29009KT 260V330 9999 FEW047 SCT067 06/00 Q1012 NOSIG
 
LEVD - Valladolid, Spain
Distance from station: N 492km
aktuell: 24/02/2024 09:30
klar
klar
 Wind von W
Wind: W 28 km/h
Temperatur: 2°C
Wind Chill: -3°C
Taupunkt: 0°C
Luftfeuchte: 87%
Luftdruck: 1011 hPa
Zusammenfassung: klar
Visibility: greater than 10 km
2024/02/24 08:30 LEVD 240830Z 27015KT CAVOK 02/00 Q1011
LEBL - Barcelona, Spain
Distance from station: NO 816km
aktuell: 24/02/2024 09:30
Few Clouds
Few Clouds
 Wind von WNW
Wind: WNW 9 km/h
Temperatur: 10°C
Wind Chill: 9°C
Taupunkt: 2°C
Luftfeuchte: 58%
Luftdruck: 1006 hPa
Clouds: Few Clouds
Visibility: 10 km
Cloud details: Few Clouds 1219 m
2024/02/24 08:30 LEBL 240830Z 29005KT 240V330 9999 FEW040 10/02 Q1006 NOSIG
LEVC - Valencia, Spain
Distance from station: ONO 535km
aktuell: 24/02/2024 09:30
Few Clouds
Few Clouds
 Wind von W
Wind: W 19 km/h
Temperatur: 12°C
Taupunkt: 0°C
Luftfeuchte: 44%
Luftdruck: 1010 hPa
Clouds: Few Clouds
Visibility: 10 km
Cloud details: Few Clouds 1067 m
2024/02/24 08:30 LEVC 240830Z 27010KT 240V300 9999 FEW035 12/00 Q1010 NOSIG